Time;durP1;ratioP1;P1;durP2;ratioP2;P2;SDS_P1;SDS_P2;PMS_P1;PMS_P2;Temp;Humidity;BMP_temperature;BMP_pressure;BME280_temperature;BME280_humidity;BME280_pressure;Samples;Min_cycle;Max_cycle;Signal;HPM_P1;HPM_P2
2023/09/27 00:00:41;;;;;;;1.93;1.73;;;;;22.20;100876.00;;;;2591105;22;20539;-60
2023/09/27 00:01:42;;;;;;;2.63;2.43;;;;;22.10;100882.00;;;;2576361;22;20195;-59
2023/09/27 00:02:43;;;;;;;2.43;1.97;;;;;22.10;100864.00;;;;2591159;22;20191;-58
2023/09/27 00:03:44;;;;;;;4.53;1.92;;;;;22.20;100869.00;;;;2590925;22;20679;-58
2023/09/27 00:04:44;;;;;;;2.40;2.20;;;;;22.20;100873.00;;;;2590866;22;20191;-59
2023/09/27 00:05:45;;;;;;;2.80;2.60;;;;;22.10;100760.00;;;;2590169;22;20278;-59
2023/09/27 00:06:45;;;;;;;2.50;2.30;;;;;22.10;100875.00;;;;2576952;22;20665;-59
2023/09/27 00:07:46;;;;;;;2.40;2.20;;;;;22.20;100879.00;;;;2590550;22;20232;-59
2023/09/27 00:08:46;;;;;;;2.50;2.30;;;;;22.20;100884.00;;;;2590179;22;20267;-59
2023/09/27 00:09:47;;;;;;;2.77;2.50;;;;;22.20;100878.00;;;;2589236;22;20286;-59
2023/09/27 00:10:47;;;;;;;2.33;2.13;;;;;22.20;100888.00;;;;2590102;22;20267;-58
2023/09/27 00:11:48;;;;;;;2.30;2.10;;;;;22.20;100889.00;;;;2575051;22;20195;-58
2023/09/27 00:12:48;;;;;;;2.20;2.00;;;;;22.20;100884.00;;;;2590772;22;20211;-59
2023/09/27 00:13:49;;;;;;;2.30;2.10;;;;;22.20;100889.00;;;;2575418;22;20196;-58
2023/09/27 00:14:49;;;;;;;2.30;2.10;;;;;22.20;100875.00;;;;2576618;22;20658;-59
2023/09/27 00:15:49;;;;;;;2.40;2.20;;;;;22.20;100881.00;;;;2590961;22;20588;-59
2023/09/27 00:16:50;;;;;;;2.60;2.40;;;;;22.20;100883.00;;;;2576122;22;20220;-59
2023/09/27 00:17:50;;;;;;;2.23;2.00;;;;;22.20;100881.00;;;;2590617;22;20207;-59
2023/09/27 00:18:50;;;;;;;1.83;1.60;;;;;22.20;100824.00;;;;2589847;22;20657;-59
2023/09/27 00:19:51;;;;;;;2.23;2.03;;;;;22.20;100875.00;;;;2589595;22;20534;-59
2023/09/27 00:20:52;;;;;;;3.80;2.67;;;;;22.20;100873.00;;;;2591114;22;20202;-59
2023/09/27 00:21:52;;;;;;;2.87;2.13;;;;;22.10;100873.00;;;;2576322;22;20208;-59
2023/09/27 00:22:54;;;;;;;2.40;2.20;;;;;22.10;100872.00;;;;2590804;22;20430;-59
2023/09/27 00:23:55;;;;;;;2.35;2.15;;;;;22.20;100865.00;;;;2590538;22;20215;-59
2023/09/27 00:24:56;;;;;;;2.30;2.00;;;;;22.10;100867.00;;;;2590906;22;20567;-59
2023/09/27 00:25:56;;;;;;;2.30;2.10;;;;;22.10;100871.00;;;;2590348;22;20223;-58
2023/09/27 00:26:57;;;;;;;2.30;2.10;;;;;22.10;100860.00;;;;2574930;22;20249;-59
2023/09/27 00:27:57;;;;;;;2.27;2.07;;;;;22.20;100877.00;;;;2589596;22;20634;-58
2023/09/27 00:28:57;;;;;;;2.23;2.03;;;;;22.10;100866.00;;;;2601940;22;20288;-59
2023/09/27 00:29:58;;;;;;;1.73;1.60;;;;;22.10;100877.00;;;;2601147;22;20225;-59
2023/09/27 00:30:58;;;;;;;2.57;2.37;;;;;22.10;100883.00;;;;2589783;22;20199;-59
2023/09/27 00:31:59;;;;;;;2.10;1.90;;;;;22.10;100881.00;;;;2575286;22;20199;-59
2023/09/27 00:33:00;;;;;;;1.90;1.80;;;;;22.20;100889.00;;;;2589912;22;20195;-59
2023/09/27 00:34:00;;;;;;;3.00;2.50;;;;;22.10;100888.00;;;;2590858;22;20195;-59
2023/09/27 00:35:01;;;;;;;2.20;2.00;;;;;22.20;100885.00;;;;2590260;22;20430;-59
2023/09/27 00:36:02;;;;;;;2.33;2.00;;;;;22.10;100889.00;;;;2590632;22;20198;-59
2023/09/27 00:37:02;;;;;;;2.60;2.40;;;;;22.10;100886.00;;;;2584632;22;20459;-59
2023/09/27 00:38:03;;;;;;;2.47;2.27;;;;;22.10;100894.00;;;;2601925;22;20187;-60
2023/09/27 00:39:03;;;;;;;2.50;2.30;;;;;22.10;100887.00;;;;2593010;22;20283;-58
2023/09/27 00:40:10;;;;;;;2.60;2.30;;;;;22.10;100890.00;;;;2587771;22;20195;-60
2023/09/27 00:41:10;;;;;;;2.55;2.28;;;;;22.10;100888.00;;;;2589376;22;20191;-58
2023/09/27 00:42:10;;;;;;;2.30;2.10;;;;;22.10;100892.00;;;;2575514;22;20191;-59
2023/09/27 00:43:28;;;;;;;2.50;2.30;;;;;22.10;100893.00;;;;2590642;22;20214;-59
2023/09/27 00:44:28;;;;;;;2.50;2.30;;;;;22.10;100896.00;;;;2589512;22;20183;-58
2023/09/27 00:45:29;;;;;;;2.50;2.30;;;;;22.10;100897.00;;;;2589765;22;20200;-59
2023/09/27 00:46:29;;;;;;;2.10;1.87;;;;;22.10;100895.00;;;;2574634;22;20225;-59
2023/09/27 00:47:30;;;;;;;2.93;2.63;;;;;22.10;100901.00;;;;2576758;22;20295;-58
2023/09/27 00:48:31;;;;;;;2.20;2.00;;;;;22.10;100901.00;;;;2589785;22;20199;-58
2023/09/27 00:49:31;;;;;;;2.37;2.17;;;;;22.10;100906.00;;;;2588388;22;20208;-59
2023/09/27 00:50:32;;;;;;;2.03;1.83;;;;;22.10;100906.00;;;;2589564;22;20426;-58
2023/09/27 00:51:32;;;;;;;2.50;2.30;;;;;22.10;100897.00;;;;2574981;22;20199;-59
2023/09/27 00:52:32;;;;;;;2.93;2.27;;;;;22.10;100910.00;;;;2589416;22;20200;-60
2023/09/27 00:53:33;;;;;;;2.10;1.90;;;;;22.10;100912.00;;;;2577146;23;20198;-59
2023/09/27 00:54:34;;;;;;;2.40;2.20;;;;;22.10;100911.00;;;;2573642;23;20211;-60
2023/09/27 00:55:34;;;;;;;2.13;2.03;;;;;22.10;100907.00;;;;2577110;23;20429;-59
2023/09/27 00:56:34;;;;;;;2.07;1.83;;;;;22.10;100901.00;;;;2562194;23;20207;-58
2023/09/27 00:57:35;;;;;;;2.70;2.50;;;;;22.10;100920.00;;;;2589917;22;20199;-59
2023/09/27 00:58:35;;;;;;;2.40;2.20;;;;;22.10;100914.00;;;;2577064;23;20226;-60
2023/09/27 00:59:36;;;;;;;2.20;2.03;;;;;22.10;100921.00;;;;2562390;23;20192;-60
2023/09/27 01:00:37;;;;;;;2.40;2.10;;;;;22.10;100921.00;;;;2590061;22;20246;-59
2023/09/27 01:01:37;;;;;;;2.28;2.08;;;;;22.10;100918.00;;;;2587933;22;20225;-62
2023/09/27 01:02:38;;;;;;;2.40;2.13;;;;;22.10;100916.00;;;;2589832;22;20223;-62
2023/09/27 01:03:39;;;;;;;2.33;2.13;;;;;22.10;100920.00;;;;2577430;22;20575;-58
2023/09/27 01:04:43;;;;;;;2.40;2.20;;;;;22.10;100924.00;;;;2576577;22;20497;-59
2023/09/27 01:05:44;;;;;;;2.53;2.30;;;;;22.10;100924.00;;;;2577788;22;20196;-61
2023/09/27 01:06:44;;;;;;;2.40;2.20;;;;;22.10;100917.00;;;;2562987;22;20203;-59
2023/09/27 01:07:44;;;;;;;1.90;1.80;;;;;22.10;100918.00;;;;2589322;22;20199;-60
2023/09/27 01:08:45;;;;;;;2.07;1.87;;;;;22.10;100924.00;;;;2589867;22;20195;-58
2023/09/27 01:09:45;;;;;;;2.57;2.10;;;;;22.10;100920.00;;;;2587464;22;20203;-59
2023/09/27 01:10:46;;;;;;;2.67;2.40;;;;;22.10;100919.00;;;;2589820;22;20215;-59
2023/09/27 01:11:46;;;;;;;2.23;1.97;;;;;22.10;100919.00;;;;2587457;22;20195;-58
2023/09/27 01:12:46;;;;;;;2.27;2.07;;;;;22.10;100919.00;;;;2589269;22;20249;-59
2023/09/27 01:13:47;;;;;;;2.30;2.10;;;;;22.10;100916.00;;;;2577318;22;20258;-59
2023/09/27 01:14:49;;;;;;;2.23;2.03;;;;;22.10;100922.00;;;;2589142;22;20238;-59
2023/09/27 01:15:49;;;;;;;2.30;2.10;;;;;22.10;100927.00;;;;2589695;22;20195;-58
2023/09/27 01:16:50;;;;;;;2.60;2.40;;;;;22.10;100931.00;;;;2571444;22;20340;-58
2023/09/27 01:17:57;;;;;;;1.93;1.77;;;;;22.10;100923.00;;;;2587980;22;20200;-59
2023/09/27 01:19:04;;;;;;;2.55;2.03;;;;;22.10;100927.00;;;;2589031;22;20244;-58
2023/09/27 01:20:06;;;;;;;2.30;2.10;;;;;22.10;100937.00;;;;2575417;22;20553;-59
2023/09/27 01:21:06;;;;;;;2.63;2.42;;;;;22.10;100933.00;;;;2577250;22;20192;-59
2023/09/27 01:22:07;;;;;;;2.40;2.20;;;;;22.10;100932.00;;;;2576037;22;20187;-59
2023/09/27 01:23:07;;;;;;;2.43;2.23;;;;;22.10;100932.00;;;;2590039;22;20192;-58
2023/09/27 01:24:07;;;;;;;2.30;2.10;;;;;22.10;100938.00;;;;2590236;22;20663;-58
2023/09/27 01:25:09;;;;;;;2.00;1.90;;;;;22.10;100941.00;;;;2589548;22;20233;-58
2023/09/27 01:26:09;;;;;;;2.40;2.20;;;;;22.10;100937.00;;;;2575399;22;20722;-59
2023/09/27 01:27:10;;;;;;;2.40;2.20;;;;;22.10;100935.00;;;;2560226;22;20270;-59
2023/09/27 01:28:10;;;;;;;2.40;2.17;;;;;22.10;100939.00;;;;2577237;23;20207;-58
2023/09/27 01:29:11;;;;;;;2.60;2.40;;;;;22.10;100939.00;;;;2563654;23;20201;-58
2023/09/27 01:30:11;;;;;;;2.30;2.10;;;;;22.10;100940.00;;;;2576141;23;20275;-59
2023/09/27 01:31:12;;;;;;;1.90;1.80;;;;;22.10;100942.00;;;;2590876;22;20188;-59
2023/09/27 01:32:12;;;;;;;2.33;2.13;;;;;22.10;100939.00;;;;2578397;22;20195;-59
2023/09/27 01:33:13;;;;;;;2.63;2.43;;;;;22.10;100938.00;;;;2601028;22;20187;-59
2023/09/27 01:34:13;;;;;;;2.63;2.00;;;;;22.10;100936.00;;;;2590591;22;20199;-59
2023/09/27 01:35:13;;;;;;;2.47;2.27;;;;;22.10;100927.00;;;;2587622;22;20630;-59
2023/09/27 01:36:14;;;;;;;2.23;2.03;;;;;22.10;100926.00;;;;2589534;22;20541;-59
2023/09/27 01:37:14;;;;;;;2.00;1.80;;;;;22.10;100920.00;;;;2571137;22;20503;-59
2023/09/27 01:38:15;;;;;;;2.37;2.17;;;;;22.10;100920.00;;;;2590336;22;20199;-59
2023/09/27 01:39:15;;;;;;;2.30;2.10;;;;;22.10;100923.00;;;;2578558;22;20191;-59
2023/09/27 01:40:22;;;;;;;2.03;1.83;;;;;22.10;100923.00;;;;2600340;22;20201;-59
2023/09/27 01:41:22;;;;;;;2.13;1.92;;;;;22.10;100923.00;;;;2587146;22;20253;-59
2023/09/27 01:42:23;;;;;;;2.30;2.10;;;;;22.10;100929.00;;;;2591469;22;20195;-59
2023/09/27 01:43:23;;;;;;;2.40;2.20;;;;;22.10;100925.00;;;;2590977;22;20194;-59
2023/09/27 01:44:23;;;;;;;2.37;2.07;;;;;22.10;100942.00;;;;2590989;22;20230;-60
2023/09/27 01:45:24;;;;;;;2.23;2.03;;;;;22.10;100932.00;;;;2587958;22;20198;-59
2023/09/27 01:46:24;;;;;;;1.97;1.87;;;;;22.10;100936.00;;;;2575175;22;20184;-59
2023/09/27 01:47:24;;;;;;;2.17;2.00;;;;;22.10;100936.00;;;;2588991;22;20195;-59
2023/09/27 01:48:25;;;;;;;2.13;1.93;;;;;22.10;100937.00;;;;2591115;22;20199;-59
2023/09/27 01:49:26;;;;;;;2.50;2.30;;;;;22.10;100941.00;;;;2589560;22;20215;-59
2023/09/27 01:50:26;;;;;;;2.20;2.00;;;;;22.10;100942.00;;;;2591025;22;20191;-59
2023/09/27 01:51:27;;;;;;;2.20;2.00;;;;;22.10;100944.00;;;;2575924;22;20422;-59
2023/09/27 01:52:27;;;;;;;2.30;2.10;;;;;22.10;100947.00;;;;2589664;22;20195;-59
2023/09/27 01:53:28;;;;;;;2.03;1.93;;;;;22.10;100948.00;;;;2589897;22;20192;-59
2023/09/27 01:54:28;;;;;;;2.40;2.20;;;;;22.10;100948.00;;;;2589595;22;20195;-59
2023/09/27 01:55:28;;;;;;;2.03;1.83;;;;;22.10;100949.00;;;;2587709;22;20588;-59
2023/09/27 01:56:29;;;;;;;2.17;2.00;;;;;22.10;100954.00;;;;2573138;22;20191;-59
2023/09/27 01:57:29;;;;;;;2.63;2.43;;;;;22.10;100951.00;;;;2589714;22;20200;-59
2023/09/27 01:58:29;;;;;;;2.30;2.10;;;;;22.10;100948.00;;;;2601645;22;20869;-59
2023/09/27 01:59:30;;;;;;;2.07;1.87;;;;;22.10;100949.00;;;;2587872;22;20199;-59
2023/09/27 02:00:30;;;;;;;2.00;1.90;;;;;22.10;100944.00;;;;2586607;22;20195;-59
2023/09/27 02:01:30;;;;;;;1.70;1.60;;;;;22.10;100945.00;;;;2571623;22;20242;-59
2023/09/27 02:02:31;;;;;;;2.07;1.93;;;;;22.10;100937.00;;;;2590543;22;20242;-59
2023/09/27 02:03:31;;;;;;;2.40;1.90;;;;;22.10;100943.00;;;;2587536;22;20219;-59
2023/09/27 02:04:31;;;;;;;2.47;2.10;;;;;22.10;100944.00;;;;2590937;22;20192;-59
2023/09/27 02:05:32;;;;;;;2.30;2.10;;;;;22.10;100935.00;;;;2591047;22;20215;-59
2023/09/27 02:06:32;;;;;;;2.00;1.80;;;;;22.10;100927.00;;;;2573589;22;22026;-59
2023/09/27 02:07:33;;;;;;;2.17;1.97;;;;;22.10;100926.00;;;;2589658;22;20203;-59
2023/09/27 02:08:33;;;;;;;2.17;1.97;;;;;22.10;100923.00;;;;2590556;22;20195;-60
2023/09/27 02:09:33;;;;;;;3.37;2.30;;;;;22.10;100921.00;;;;2587367;22;20719;-59
2023/09/27 02:10:34;;;;;;;2.40;2.20;;;;;22.10;100929.00;;;;2586280;22;20206;-59
2023/09/27 02:11:34;;;;;;;2.10;1.83;;;;;22.10;100940.00;;;;2574724;22;20251;-59
2023/09/27 02:12:36;;;;;;;2.47;2.20;;;;;22.10;100941.00;;;;2590743;22;20195;-59
2023/09/27 02:13:36;;;;;;;2.22;2.00;;;;;22.10;100940.00;;;;2589802;22;20270;-59
2023/09/27 02:14:37;;;;;;;1.87;1.77;;;;;22.10;100947.00;;;;2584532;22;20203;-59
2023/09/27 02:15:37;;;;;;;1.90;1.80;;;;;22.10;100943.00;;;;2590840;22;20191;-60
2023/09/27 02:16:41;;;;;;;2.17;1.97;;;;;22.10;100948.00;;;;2575832;22;20199;-59
2023/09/27 02:17:42;;;;;;;2.30;2.10;;;;;22.10;100947.00;;;;2590953;22;20192;-59
2023/09/27 02:18:43;;;;;;;2.75;2.55;;;;;22.10;100937.00;;;;2591182;22;20244;-59
2023/09/27 02:19:43;;;;;;;2.27;2.03;;;;;22.10;100942.00;;;;2589372;22;20191;-59
2023/09/27 02:20:43;;;;;;;2.50;2.30;;;;;22.10;100944.00;;;;2591587;22;20230;-59
2023/09/27 02:21:44;;;;;;;2.40;2.20;;;;;22.10;100940.00;;;;2575251;22;20196;-59
2023/09/27 02:22:50;;;;;;;1.97;1.87;;;;;22.10;100944.00;;;;2590168;22;20196;-59
2023/09/27 02:23:50;;;;;;;2.30;2.10;;;;;22.10;100946.00;;;;2590041;22;20192;-59
2023/09/27 02:24:51;;;;;;;2.00;1.80;;;;;22.10;100950.00;;;;2590889;22;20295;-60
2023/09/27 02:25:57;;;;;;;2.40;2.20;;;;;22.10;100967.00;;;;2591322;22;20192;-59
2023/09/27 02:26:58;;;;;;;2.40;2.20;;;;;22.10;100950.00;;;;2575795;22;20194;-60
2023/09/27 02:27:58;;;;;;;2.70;2.20;;;;;22.10;100946.00;;;;2591347;22;20547;-59
2023/09/27 02:28:59;;;;;;;2.87;2.57;;;;;21.50;100950.00;;;;2586010;22;20576;-59
2023/09/27 02:30:00;;;;;;;2.25;1.92;;;;;22.10;100952.00;;;;2589280;22;20200;-59
2023/09/27 02:31:01;;;;;;;2.30;2.10;;;;;22.10;100956.00;;;;2591060;22;20207;-59
2023/09/27 02:32:01;;;;;;;2.10;1.90;;;;;22.10;100948.00;;;;2577158;22;20191;-59
2023/09/27 02:33:01;;;;;;;2.23;2.00;;;;;22.10;100945.00;;;;2590544;22;20203;-59
2023/09/27 02:34:02;;;;;;;2.43;2.23;;;;;22.10;100941.00;;;;2591481;22;20188;-59
2023/09/27 02:35:02;;;;;;;2.03;1.93;;;;;22.10;100946.00;;;;2591375;22;20218;-58
2023/09/27 02:36:03;;;;;;;2.20;2.00;;;;;22.10;100943.00;;;;2589656;22;20194;-59
2023/09/27 02:37:04;;;;;;;2.45;2.25;;;;;22.10;100942.00;;;;2575695;22;20191;-59
2023/09/27 02:38:05;;;;;;;2.50;2.30;;;;;22.10;100940.00;;;;2590407;22;20705;-59
2023/09/27 02:39:05;;;;;;;2.60;2.40;;;;;22.10;100937.00;;;;2590176;22;20199;-59
2023/09/27 02:40:12;;;;;;;2.00;1.90;;;;;22.10;100937.00;;;;2588907;22;20650;-59
2023/09/27 02:41:13;;;;;;;2.25;2.03;;;;;22.10;100944.00;;;;2602706;22;20209;-59
2023/09/27 02:42:14;;;;;;;2.53;2.30;;;;;22.10;100957.00;;;;2587437;22;20269;-59
2023/09/27 02:43:14;;;;;;;1.70;1.60;;;;;22.10;100938.00;;;;2583904;22;20908;-59
2023/09/27 02:44:15;;;;;;;2.37;2.17;;;;;22.10;100934.00;;;;2588340;22;20195;-59
2023/09/27 02:45:15;;;;;;;2.30;2.10;;;;;22.10;100929.00;;;;2590300;22;20198;-59
2023/09/27 02:46:15;;;;;;;2.17;1.73;;;;;22.10;100934.00;;;;2590722;22;20214;-59
2023/09/27 02:47:16;;;;;;;2.60;2.40;;;;;22.10;100932.00;;;;2576305;22;20572;-59
2023/09/27 02:48:16;;;;;;;2.50;2.30;;;;;22.10;100927.00;;;;2589567;22;20203;-60
2023/09/27 02:49:17;;;;;;;2.20;2.00;;;;;22.10;100918.00;;;;2591230;22;20214;-60
2023/09/27 02:50:17;;;;;;;2.30;2.10;;;;;22.10;100920.00;;;;2588858;22;20187;-59
2023/09/27 02:51:18;;;;;;;2.93;2.23;;;;;22.10;100911.00;;;;2591258;22;20245;-59
2023/09/27 02:52:18;;;;;;;2.63;2.40;;;;;22.10;100911.00;;;;2576179;22;20295;-59
2023/09/27 02:53:18;;;;;;;2.23;2.03;;;;;22.10;100913.00;;;;2585709;22;20195;-59
2023/09/27 02:54:19;;;;;;;2.33;2.13;;;;;22.10;100908.00;;;;2586992;22;20200;-59
2023/09/27 02:55:20;;;;;;;2.40;2.20;;;;;22.10;100906.00;;;;2590537;22;20175;-58
2023/09/27 02:56:20;;;;;;;2.57;2.37;;;;;22.10;100906.00;;;;2575807;22;20513;-60
2023/09/27 02:57:20;;;;;;;2.30;2.10;;;;;22.10;100895.00;;;;2590652;22;20207;-57
2023/09/27 02:58:21;;;;;;;2.10;1.90;;;;;22.10;100896.00;;;;2587244;22;20202;-57
2023/09/27 02:59:21;;;;;;;2.27;2.07;;;;;22.10;100900.00;;;;2590231;22;20657;-58
2023/09/27 03:00:21;;;;;;;2.23;2.03;;;;;22.10;100900.00;;;;2587570;22;20199;-59
2023/09/27 03:01:22;;;;;;;2.30;2.10;;;;;22.10;100896.00;;;;2575525;22;20187;-58
2023/09/27 03:02:23;;;;;;;2.10;1.90;;;;;22.10;100899.00;;;;2590512;22;20631;-58
2023/09/27 03:03:24;;;;;;;2.20;2.00;;;;;22.10;100902.00;;;;2591245;22;20202;-58
2023/09/27 03:04:25;;;;;;;2.47;2.28;;;;;22.10;100898.00;;;;2591180;22;20195;-58
2023/09/27 03:05:26;;;;;;;2.40;2.20;;;;;22.10;100895.00;;;;2590482;22;20552;-59
2023/09/27 03:06:26;;;;;;;2.03;1.83;;;;;22.10;100893.00;;;;2576957;22;20219;-58
2023/09/27 03:07:27;;;;;;;2.50;2.30;;;;;22.10;100896.00;;;;2590783;22;20427;-58
2023/09/27 03:08:28;;;;;;;2.23;2.03;;;;;22.10;100887.00;;;;2590548;22;20549;-58
2023/09/27 03:09:29;;;;;;;2.40;2.10;;;;;22.10;100960.00;;;;2589686;22;20295;-59
2023/09/27 03:10:29;;;;;;;2.23;2.00;;;;;22.10;100889.00;;;;2590215;22;20944;-57
2023/09/27 03:11:29;;;;;;;3.00;2.40;;;;;22.10;100893.00;;;;2576919;22;20550;-58
2023/09/27 03:12:30;;;;;;;2.40;1.90;;;;;22.10;100900.00;;;;2590616;22;20306;-57
2023/09/27 03:13:30;;;;;;;1.93;1.83;;;;;22.10;100903.00;;;;2591114;22;20650;-59
2023/09/27 03:14:31;;;;;;;2.40;2.20;;;;;22.10;100893.00;;;;2590442;22;20983;-59
2023/09/27 03:15:31;;;;;;;2.10;1.90;;;;;22.10;100898.00;;;;2591108;22;20200;-59
2023/09/27 03:16:31;;;;;;;2.13;1.93;;;;;22.10;100896.00;;;;2576629;22;20245;-58
2023/09/27 03:17:32;;;;;;;1.83;1.73;;;;;22.10;100892.00;;;;2590606;22;20195;-57
2023/09/27 03:18:32;;;;;;;2.10;1.90;;;;;22.10;100895.00;;;;2590432;22;20210;-58
2023/09/27 03:19:32;;;;;;;2.27;2.07;;;;;22.10;100897.00;;;;2587535;22;20281;-58
2023/09/27 03:20:33;;;;;;;2.10;1.93;;;;;22.10;100890.00;;;;2589962;22;20242;-58
2023/09/27 03:21:33;;;;;;;2.00;1.90;;;;;22.10;100898.00;;;;2586562;22;20633;-58
2023/09/27 03:22:34;;;;;;;2.00;1.80;;;;;22.10;100894.00;;;;2602734;22;20921;-58
2023/09/27 03:23:34;;;;;;;2.40;2.20;;;;;22.10;100906.00;;;;2599583;22;20198;-57
2023/09/27 03:24:34;;;;;;;2.43;2.23;;;;;22.10;100889.00;;;;2590787;22;20195;-58
2023/09/27 03:25:35;;;;;;;1.93;1.77;;;;;22.10;100896.00;;;;2590905;22;20195;-57
2023/09/27 03:26:35;;;;;;;2.60;2.37;;;;;22.10;100893.00;;;;2576249;22;20218;-58
2023/09/27 03:27:36;;;;;;;2.30;2.10;;;;;22.10;100890.00;;;;2591169;22;20203;-59
2023/09/27 03:28:36;;;;;;;2.05;1.85;;;;;22.10;100888.00;;;;2590536;22;20916;-58
2023/09/27 03:29:37;;;;;;;2.20;2.00;;;;;22.00;100878.00;;;;2589748;22;20203;-58
2023/09/27 03:30:37;;;;;;;2.00;1.90;;;;;22.10;100888.00;;;;2590917;22;20195;-58
2023/09/27 03:31:37;;;;;;;2.00;1.90;;;;;22.00;100893.00;;;;2576282;22;20206;-58
2023/09/27 03:32:38;;;;;;;2.03;1.87;;;;;22.00;100899.00;;;;2590682;22;20245;-57
2023/09/27 03:33:38;;;;;;;2.13;1.93;;;;;22.10;100898.00;;;;2590455;22;20226;-60
2023/09/27 03:34:38;;;;;;;1.97;1.87;;;;;22.00;100893.00;;;;2590879;22;20195;-57
2023/09/27 03:35:39;;;;;;;2.23;2.03;;;;;22.10;100895.00;;;;2590744;22;20195;-58
2023/09/27 03:36:39;;;;;;;2.50;2.03;;;;;22.00;100903.00;;;;2575887;22;20223;-58
2023/09/27 03:37:39;;;;;;;2.40;2.10;;;;;22.00;100901.00;;;;2590039;22;20581;-59
2023/09/27 03:38:40;;;;;;;2.43;2.17;;;;;22.00;100904.00;;;;2590028;22;20290;-58
2023/09/27 03:39:41;;;;;;;2.30;2.10;;;;;22.10;100893.00;;;;2588816;22;20310;-57
2023/09/27 03:40:41;;;;;;;2.40;2.20;;;;;22.00;100902.00;;;;2589460;22;20425;-58
2023/09/27 03:41:42;;;;;;;1.97;1.77;;;;;22.00;100902.00;;;;2575470;22;20304;-58
2023/09/27 03:42:43;;;;;;;2.10;2.00;;;;;22.00;100897.00;;;;2589815;22;20211;-58
2023/09/27 03:43:44;;;;;;;2.45;2.25;;;;;22.10;100904.00;;;;2591181;22;20206;-59
2023/09/27 03:44:45;;;;;;;2.47;2.22;;;;;22.00;100901.00;;;;2590888;22;20195;-57
2023/09/27 03:45:45;;;;;;;1.97;1.87;;;;;22.00;100893.00;;;;2590477;22;20195;-57
2023/09/27 03:46:46;;;;;;;2.50;2.30;;;;;22.00;100881.00;;;;2575602;22;20191;-59
2023/09/27 03:47:47;;;;;;;2.00;1.80;;;;;22.00;100885.00;;;;2589624;22;20195;-60
2023/09/27 03:48:47;;;;;;;2.00;1.80;;;;;22.00;100885.00;;;;2589958;22;20187;-62
2023/09/27 03:49:48;;;;;;;2.00;1.90;;;;;22.00;100890.00;;;;2588071;22;20204;-62
2023/09/27 03:50:48;;;;;;;2.50;2.30;;;;;22.00;100882.00;;;;2589952;22;20197;-60
2023/09/27 03:51:48;;;;;;;2.50;2.30;;;;;22.00;100879.00;;;;2576053;22;20211;-59
2023/09/27 03:52:49;;;;;;;2.27;2.07;;;;;22.00;100877.00;;;;2590577;22;20191;-57
2023/09/27 03:53:49;;;;;;;2.20;2.00;;;;;22.00;100882.00;;;;2589820;22;20215;-58
2023/09/27 03:54:49;;;;;;;2.40;2.20;;;;;22.00;100875.00;;;;2589561;22;20204;-57
2023/09/27 03:55:50;;;;;;;2.40;2.20;;;;;22.00;100881.00;;;;2590992;22;20353;-57
2023/09/27 03:56:51;;;;;;;2.30;2.10;;;;;22.00;100881.00;;;;2574351;22;20334;-58
2023/09/27 03:57:51;;;;;;;2.10;1.80;;;;;22.00;100877.00;;;;2590086;22;20569;-59
2023/09/27 03:58:52;;;;;;;2.40;2.20;;;;;22.00;100887.00;;;;2602642;22;20190;-58
2023/09/27 03:59:52;;;;;;;2.10;1.77;;;;;22.00;100885.00;;;;2600806;22;20522;-59
2023/09/27 04:00:53;;;;;;;2.27;2.07;;;;;22.00;100878.00;;;;2590354;22;20191;-59
2023/09/27 04:01:53;;;;;;;2.20;2.00;;;;;22.00;100883.00;;;;2576304;22;20941;-59
2023/09/27 04:02:53;;;;;;;2.37;2.17;;;;;22.00;100892.00;;;;2591148;22;20320;-59
2023/09/27 04:03:54;;;;;;;1.90;1.80;;;;;22.00;100890.00;;;;2591062;22;20214;-59
2023/09/27 04:04:54;;;;;;;2.33;2.10;;;;;22.00;100886.00;;;;2590502;22;20195;-59
2023/09/27 04:05:56;;;;;;;2.20;2.00;;;;;22.00;100897.00;;;;2590596;22;20192;-58
2023/09/27 04:06:56;;;;;;;2.25;2.05;;;;;22.00;100897.00;;;;2575475;22;20192;-58
2023/09/27 04:07:57;;;;;;;2.13;1.93;;;;;22.00;100891.00;;;;2589773;22;20219;-57
2023/09/27 04:08:57;;;;;;;2.17;1.97;;;;;22.00;100892.00;;;;2590098;22;20222;-58
2023/09/27 04:09:58;;;;;;;2.17;1.97;;;;;22.00;100883.00;;;;2586131;22;20200;-58
2023/09/27 04:10:58;;;;;;;2.20;2.00;;;;;22.00;100900.00;;;;2587219;22;20241;-59
2023/09/27 04:11:59;;;;;;;2.25;2.05;;;;;22.00;100890.00;;;;2570510;22;20204;-58
2023/09/27 04:13:00;;;;;;;2.20;2.00;;;;;22.00;100891.00;;;;2590204;22;20294;-58
2023/09/27 04:14:00;;;;;;;2.20;2.00;;;;;22.00;100888.00;;;;2590159;22;20241;-59
2023/09/27 04:15:00;;;;;;;2.17;2.07;;;;;22.00;100892.00;;;;2602147;22;20190;-59
2023/09/27 04:16:01;;;;;;;2.53;2.30;;;;;22.00;100890.00;;;;2603260;22;20195;-59
2023/09/27 04:17:02;;;;;;;2.40;2.20;;;;;22.00;100894.00;;;;2574946;22;20234;-58
2023/09/27 04:18:03;;;;;;;2.25;2.05;;;;;22.00;100943.00;;;;2591011;22;20211;-59
2023/09/27 04:19:03;;;;;;;2.25;2.05;;;;;22.00;100903.00;;;;2590363;22;20553;-59
2023/09/27 04:20:13;;;;;;;2.57;2.23;;;;;22.00;100904.00;;;;2589200;22;20282;-59
2023/09/27 04:21:14;;;;;;;1.80;1.70;;;;;22.00;100903.00;;;;2590094;22;20218;-59
2023/09/27 04:22:15;;;;;;;2.60;2.03;;;;;21.50;100905.00;;;;2575458;22;21054;-58
2023/09/27 04:23:15;;;;;;;2.43;2.23;;;;;22.00;100903.00;;;;2590071;22;20262;-59
2023/09/27 04:24:16;;;;;;;2.40;2.20;;;;;22.00;100899.00;;;;2589493;22;20195;-59
2023/09/27 04:25:17;;;;;;;2.40;2.20;;;;;22.00;100894.00;;;;2586643;22;20191;-60
2023/09/27 04:26:17;;;;;;;2.30;2.10;;;;;22.00;100896.00;;;;2590487;22;21086;-59
2023/09/27 04:27:18;;;;;;;2.30;2.10;;;;;22.00;100908.00;;;;2574580;22;20188;-59
2023/09/27 04:28:18;;;;;;;2.28;2.08;;;;;22.00;100891.00;;;;2590558;22;20199;-59
2023/09/27 04:29:19;;;;;;;2.40;2.20;;;;;22.00;100905.00;;;;2590008;22;20271;-59
2023/09/27 04:30:21;;;;;;;2.40;2.20;;;;;22.00;100905.00;;;;2561753;22;20234;-61
2023/09/27 04:31:22;;;;;;;2.35;2.15;;;;;22.00;100905.00;;;;2560191;22;20279;-59
2023/09/27 04:32:25;;;;;;;1.77;1.67;;;;;22.00;100911.00;;;;2588513;22;20191;-59
2023/09/27 04:33:25;;;;;;;2.33;2.13;;;;;22.00;100913.00;;;;2589781;22;20198;-58
2023/09/27 04:34:26;;;;;;;2.40;2.10;;;;;22.00;100906.00;;;;2591030;22;20202;-59
2023/09/27 04:35:26;;;;;;;2.20;2.00;;;;;22.00;100907.00;;;;2590625;22;20533;-59
2023/09/27 04:36:26;;;;;;;2.10;1.80;;;;;22.00;100906.00;;;;2573223;22;20236;-59
2023/09/27 04:37:27;;;;;;;2.23;2.03;;;;;22.00;100899.00;;;;2590986;22;20634;-60
2023/09/27 04:38:27;;;;;;;2.43;2.23;;;;;22.00;100901.00;;;;2590226;22;20677;-59
2023/09/27 04:39:31;;;;;;;2.23;2.03;;;;;22.00;100891.00;;;;2589633;22;20693;-59
2023/09/27 04:40:31;;;;;;;2.45;2.25;;;;;22.00;100905.00;;;;2576826;22;20677;-59
2023/09/27 04:41:31;;;;;;;2.63;2.40;;;;;22.00;100910.00;;;;2563891;22;20215;-58
2023/09/27 04:42:32;;;;;;;2.23;2.03;;;;;22.00;100906.00;;;;2602501;22;20195;-59
2023/09/27 04:43:32;;;;;;;2.20;2.00;;;;;22.00;100915.00;;;;2600373;22;20190;-59
2023/09/27 04:44:32;;;;;;;2.57;2.33;;;;;22.00;100911.00;;;;2590913;22;20192;-60
2023/09/27 04:45:33;;;;;;;2.20;2.00;;;;;22.00;100915.00;;;;2590419;22;20669;-58
2023/09/27 04:46:34;;;;;;;1.80;1.70;;;;;22.00;100924.00;;;;2562551;22;20266;-59
2023/09/27 04:47:34;;;;;;;2.50;2.30;;;;;22.00;100928.00;;;;2577067;22;20281;-59
2023/09/27 04:48:35;;;;;;;2.17;1.97;;;;;22.00;100918.00;;;;2599692;22;20209;-59
2023/09/27 04:49:36;;;;;;;2.07;1.90;;;;;22.00;100923.00;;;;2589285;22;20199;-58
2023/09/27 04:50:36;;;;;;;1.77;1.67;;;;;22.00;100928.00;;;;2590451;22;20832;-59
2023/09/27 04:51:37;;;;;;;2.53;2.30;;;;;22.00;100935.00;;;;2571228;22;20202;-59
2023/09/27 04:52:37;;;;;;;1.80;1.70;;;;;22.00;100917.00;;;;2581245;22;20251;-58
2023/09/27 04:53:39;;;;;;;2.40;2.20;;;;;22.00;100921.00;;;;2589795;22;20240;-59
2023/09/27 04:54:39;;;;;;;2.13;1.97;;;;;22.00;100913.00;;;;2589713;22;20552;-59
2023/09/27 04:55:40;;;;;;;2.57;2.37;;;;;22.00;100917.00;;;;2591055;22;20211;-59
2023/09/27 04:56:40;;;;;;;1.93;1.80;;;;;22.00;100915.00;;;;2579934;22;20218;-58
2023/09/27 04:57:40;;;;;;;2.40;2.20;;;;;22.00;100912.00;;;;2602654;22;20209;-60
2023/09/27 04:58:41;;;;;;;2.40;2.20;;;;;22.00;100907.00;;;;2594310;22;20195;-59
2023/09/27 04:59:41;;;;;;;2.57;2.37;;;;;22.00;100910.00;;;;2586049;22;20199;-59
2023/09/27 05:00:42;;;;;;;2.17;1.97;;;;;22.00;100918.00;;;;2588679;22;20256;-59